sensor_id;sensor_type;location;lat;lon;timestamp;P1;P2;P0
70243;PMS7003;57634;51.136;17.024;2023-02-11T00:03:00;23;20;13
70243;PMS7003;57634;51.136;17.024;2023-02-11T00:06:02;22;20;12
70243;PMS7003;57634;51.136;17.024;2023-02-11T00:09:33;24;20;12
70243;PMS7003;57634;51.136;17.024;2023-02-11T00:12:35;24;20;14
70243;PMS7003;57634;51.136;17.024;2023-02-11T00:15:38;24;21;13
70243;PMS7003;57634;51.136;17.024;2023-02-11T00:18:39;22;19;13
70243;PMS7003;57634;51.136;17.024;2023-02-11T00:21:40;24;21;15
70243;PMS7003;57634;51.136;17.024;2023-02-11T00:24:42;25;21;14
70243;PMS7003;57634;51.136;17.024;2023-02-11T00:27:43;23;20;14
70243;PMS7003;57634;51.136;17.024;2023-02-11T00:30:44;17;13;8
70243;PMS7003;57634;51.136;17.024;2023-02-11T00:33:45;27;22;14
70243;PMS7003;57634;51.136;17.024;2023-02-11T00:36:47;21;19;13
70243;PMS7003;57634;51.136;17.024;2023-02-11T00:39:49;24;18;12
70243;PMS7003;57634;51.136;17.024;2023-02-11T00:42:50;20;17;12
70243;PMS7003;57634;51.136;17.024;2023-02-11T00:45:52;18;18;11
70243;PMS7003;57634;51.136;17.024;2023-02-11T00:49:29;22;20;12
70243;PMS7003;57634;51.136;17.024;2023-02-11T00:52:30;21;20;13
70243;PMS7003;57634;51.136;17.024;2023-02-11T00:55:32;24;21;14
70243;PMS7003;57634;51.136;17.024;2023-02-11T00:58:33;19;17;10
70243;PMS7003;57634;51.136;17.024;2023-02-11T01:01:35;20;18;12
70243;PMS7003;57634;51.136;17.024;2023-02-11T01:04:36;23;19;11
70243;PMS7003;57634;51.136;17.024;2023-02-11T01:07:38;28;25;17
70243;PMS7003;57634;51.136;17.024;2023-02-11T01:10:39;23;20;15
70243;PMS7003;57634;51.136;17.024;2023-02-11T01:13:41;24;22;16
70243;PMS7003;57634;51.136;17.024;2023-02-11T01:16:43;25;23;13
70243;PMS7003;57634;51.136;17.024;2023-02-11T01:19:45;34;30;20
70243;PMS7003;57634;51.136;17.024;2023-02-11T01:22:46;32;29;19
70243;PMS7003;57634;51.136;17.024;2023-02-11T01:25:48;26;24;17
70243;PMS7003;57634;51.136;17.024;2023-02-11T01:28:49;31;27;16
70243;PMS7003;57634;51.136;17.024;2023-02-11T01:32:17;28;26;17
70243;PMS7003;57634;51.136;17.024;2023-02-11T01:35:19;27;26;18
70243;PMS7003;57634;51.136;17.024;2023-02-11T01:38:23;24;23;15
70243;PMS7003;57634;51.136;17.024;2023-02-11T01:41:25;28;24;16
70243;PMS7003;57634;51.136;17.024;2023-02-11T01:44:32;29;24;14
70243;PMS7003;57634;51.136;17.024;2023-02-11T01:47:36;29;26;17
70243;PMS7003;57634;51.136;17.024;2023-02-11T01:50:37;23;20;14
70243;PMS7003;57634;51.136;17.024;2023-02-11T01:53:40;24;20;13
70243;PMS7003;57634;51.136;17.024;2023-02-11T01:57:25;25;22;14
70243;PMS7003;57634;51.136;17.024;2023-02-11T02:00:32;26;21;13
70243;PMS7003;57634;51.136;17.024;2023-02-11T02:03:38;27;25;15
70243;PMS7003;57634;51.136;17.024;2023-02-11T02:06:46;28;25;16
70243;PMS7003;57634;51.136;17.024;2023-02-11T02:09:56;22;19;13
70243;PMS7003;57634;51.136;17.024;2023-02-11T02:13:03;29;24;15
70243;PMS7003;57634;51.136;17.024;2023-02-11T02:16:06;25;20;13
70243;PMS7003;57634;51.136;17.024;2023-02-11T02:39:21;23;20;11
70243;PMS7003;57634;51.136;17.024;2023-02-11T02:42:26;27;21;12
70243;PMS7003;57634;51.136;17.024;2023-02-11T02:45:29;23;20;13
70243;PMS7003;57634;51.136;17.024;2023-02-11T02:48:31;23;21;15
70243;PMS7003;57634;51.136;17.024;2023-02-11T02:51:41;21;20;13
70243;PMS7003;57634;51.136;17.024;2023-02-11T02:55:18;18;17;12
70243;PMS7003;57634;51.136;17.024;2023-02-11T02:59:14;27;23;15
70243;PMS7003;57634;51.136;17.024;2023-02-11T03:01:47;29;25;15
70243;PMS7003;57634;51.136;17.024;2023-02-11T03:08:41;27;25;15
70243;PMS7003;57634;51.136;17.024;2023-02-11T03:11:45;19;19;13
70243;PMS7003;57634;51.136;17.024;2023-02-11T03:14:48;23;22;13
70243;PMS7003;57634;51.136;17.024;2023-02-11T03:17:51;24;21;15
70243;PMS7003;57634;51.136;17.024;2023-02-11T03:20:56;22;20;14
70243;PMS7003;57634;51.136;17.024;2023-02-11T03:24:00;29;24;15
70243;PMS7003;57634;51.136;17.024;2023-02-11T03:27:08;27;23;14
70243;PMS7003;57634;51.136;17.024;2023-02-11T03:30:44;22;19;12
70243;PMS7003;57634;51.136;17.024;2023-02-11T03:33:58;23;19;13
70243;PMS7003;57634;51.136;17.024;2023-02-11T03:37:04;24;22;15
70243;PMS7003;57634;51.136;17.024;2023-02-11T03:40:16;24;23;14
70243;PMS7003;57634;51.136;17.024;2023-02-11T03:43:25;25;22;14
70243;PMS7003;57634;51.136;17.024;2023-02-11T03:46:57;23;21;15
70243;PMS7003;57634;51.136;17.024;2023-02-11T03:50:03;22;20;13
70243;PMS7003;57634;51.136;17.024;2023-02-11T03:53:07;27;22;16
70243;PMS7003;57634;51.136;17.024;2023-02-11T03:56:10;23;19;12
70243;PMS7003;57634;51.136;17.024;2023-02-11T03:59:17;26;24;15
70243;PMS7003;57634;51.136;17.024;2023-02-11T04:02:18;23;21;12
70243;PMS7003;57634;51.136;17.024;2023-02-11T04:05:21;27;24;15
70243;PMS7003;57634;51.136;17.024;2023-02-11T04:08:22;27;24;16
70243;PMS7003;57634;51.136;17.024;2023-02-11T04:11:23;27;24;16
70243;PMS7003;57634;51.136;17.024;2023-02-11T04:14:25;19;16;11
70243;PMS7003;57634;51.136;17.024;2023-02-11T04:17:26;21;19;12
70243;PMS7003;57634;51.136;17.024;2023-02-11T04:20:55;24;21;14
70243;PMS7003;57634;51.136;17.024;2023-02-11T04:23:57;27;23;16
70243;PMS7003;57634;51.136;17.024;2023-02-11T04:26:58;24;22;14
70243;PMS7003;57634;51.136;17.024;2023-02-11T04:30:00;24;22;15
70243;PMS7003;57634;51.136;17.024;2023-02-11T04:33:02;22;19;13
70243;PMS7003;57634;51.136;17.024;2023-02-11T04:36:03;25;21;13
70243;PMS7003;57634;51.136;17.024;2023-02-11T04:39:05;24;19;13
70243;PMS7003;57634;51.136;17.024;2023-02-11T04:42:06;28;25;15
70243;PMS7003;57634;51.136;17.024;2023-02-11T04:45:08;28;22;14
70243;PMS7003;57634;51.136;17.024;2023-02-11T04:48:10;23;20;13
70243;PMS7003;57634;51.136;17.024;2023-02-11T04:51:11;24;21;13
70243;PMS7003;57634;51.136;17.024;2023-02-11T04:54:12;29;23;15
70243;PMS7003;57634;51.136;17.024;2023-02-11T04:57:14;24;21;13
70243;PMS7003;57634;51.136;17.024;2023-02-11T05:00:15;28;22;15
70243;PMS7003;57634;51.136;17.024;2023-02-11T05:03:16;23;21;14
70243;PMS7003;57634;51.136;17.024;2023-02-11T05:06:44;26;22;14
70243;PMS7003;57634;51.136;17.024;2023-02-11T05:09:45;28;25;18
70243;PMS7003;57634;51.136;17.024;2023-02-11T05:12:47;18;17;12
70243;PMS7003;57634;51.136;17.024;2023-02-11T05:15:49;21;19;13
70243;PMS7003;57634;51.136;17.024;2023-02-11T05:18:50;25;22;14
70243;PMS7003;57634;51.136;17.024;2023-02-11T05:21:55;20;18;10
70243;PMS7003;57634;51.136;17.024;2023-02-11T05:24:56;21;19;13
70243;PMS7003;57634;51.136;17.024;2023-02-11T05:27:58;25;22;14
70243;PMS7003;57634;51.136;17.024;2023-02-11T05:30:59;24;19;13
70243;PMS7003;57634;51.136;17.024;2023-02-11T05:34:00;23;22;16
70243;PMS7003;57634;51.136;17.024;2023-02-11T05:37:04;24;20;12
70243;PMS7003;57634;51.136;17.024;2023-02-11T05:40:05;25;20;13
70243;PMS7003;57634;51.136;17.024;2023-02-11T05:43:07;23;21;15
70243;PMS7003;57634;51.136;17.024;2023-02-11T05:46:36;24;20;12
70243;PMS7003;57634;51.136;17.024;2023-02-11T05:49:38;26;23;14
70243;PMS7003;57634;51.136;17.024;2023-02-11T05:52:39;25;24;15
70243;PMS7003;57634;51.136;17.024;2023-02-11T05:55:40;19;17;10
70243;PMS7003;57634;51.136;17.024;2023-02-11T05:58:41;19;18;14
70243;PMS7003;57634;51.136;17.024;2023-02-11T06:01:43;25;22;14
70243;PMS7003;57634;51.136;17.024;2023-02-11T06:04:45;24;22;12
70243;PMS7003;57634;51.136;17.024;2023-02-11T06:07:46;23;19;11
70243;PMS7003;57634;51.136;17.024;2023-02-11T06:10:47;17;16;12
70243;PMS7003;57634;51.136;17.024;2023-02-11T06:13:49;21;18;11
70243;PMS7003;57634;51.136;17.024;2023-02-11T06:16:51;24;21;14
70243;PMS7003;57634;51.136;17.024;2023-02-11T06:19:53;19;18;11
70243;PMS7003;57634;51.136;17.024;2023-02-11T06:22:54;19;18;11
70243;PMS7003;57634;51.136;17.024;2023-02-11T06:25:59;23;22;14
70243;PMS7003;57634;51.136;17.024;2023-02-11T06:29:28;20;20;14
70243;PMS7003;57634;51.136;17.024;2023-02-11T06:32:29;25;19;14
70243;PMS7003;57634;51.136;17.024;2023-02-11T06:35:31;21;21;12
70243;PMS7003;57634;51.136;17.024;2023-02-11T06:38:34;22;21;14
70243;PMS7003;57634;51.136;17.024;2023-02-11T06:41:36;10;7;3
70243;PMS7003;57634;51.136;17.024;2023-02-11T06:44:37;22;19;12
70243;PMS7003;57634;51.136;17.024;2023-02-11T06:47:39;30;24;16
70243;PMS7003;57634;51.136;17.024;2023-02-11T06:50:41;24;21;16
70243;PMS7003;57634;51.136;17.024;2023-02-11T06:53:43;22;21;15
70243;PMS7003;57634;51.136;17.024;2023-02-11T06:56:46;21;19;13
70243;PMS7003;57634;51.136;17.024;2023-02-11T06:59:50;23;20;13
70243;PMS7003;57634;51.136;17.024;2023-02-11T07:02:56;24;22;15
70243;PMS7003;57634;51.136;17.024;2023-02-11T07:06:32;27;23;14
70243;PMS7003;57634;51.136;17.024;2023-02-11T07:09:34;22;20;14
70243;PMS7003;57634;51.136;17.024;2023-02-11T07:12:35;21;18;10
70243;PMS7003;57634;51.136;17.024;2023-02-11T07:15:36;23;19;13
70243;PMS7003;57634;51.136;17.024;2023-02-11T07:18:37;26;24;14
70243;PMS7003;57634;51.136;17.024;2023-02-11T07:21:40;19;19;11
70243;PMS7003;57634;51.136;17.024;2023-02-11T07:24:41;27;24;15
70243;PMS7003;57634;51.136;17.024;2023-02-11T07:27:42;24;22;15
70243;PMS7003;57634;51.136;17.024;2023-02-11T07:30:43;25;19;12
70243;PMS7003;57634;51.136;17.024;2023-02-11T07:33:44;27;23;14
70243;PMS7003;57634;51.136;17.024;2023-02-11T07:36:48;33;27;18
70243;PMS7003;57634;51.136;17.024;2023-02-11T07:39:52;23;21;10
70243;PMS7003;57634;51.136;17.024;2023-02-11T07:42:59;26;25;16
70243;PMS7003;57634;51.136;17.024;2023-02-11T07:46:34;28;27;16
70243;PMS7003;57634;51.136;17.024;2023-02-11T07:49:44;26;22;16
70243;PMS7003;57634;51.136;17.024;2023-02-11T07:52:47;28;24;16
70243;PMS7003;57634;51.136;17.024;2023-02-11T07:55:48;24;20;12
70243;PMS7003;57634;51.136;17.024;2023-02-11T07:58:50;26;20;13
70243;PMS7003;57634;51.136;17.024;2023-02-11T08:01:51;21;19;12
70243;PMS7003;57634;51.136;17.024;2023-02-11T08:04:52;23;19;14
70243;PMS7003;57634;51.136;17.024;2023-02-11T08:07:53;24;21;12
70243;PMS7003;57634;51.136;17.024;2023-02-11T08:10:55;23;19;11
70243;PMS7003;57634;51.136;17.024;2023-02-11T08:13:56;21;21;13
70243;PMS7003;57634;51.136;17.024;2023-02-11T08:16:58;18;17;10
70243;PMS7003;57634;51.136;17.024;2023-02-11T08:20:26;22;20;13
70243;PMS7003;57634;51.136;17.024;2023-02-11T08:23:28;20;17;12
70243;PMS7003;57634;51.136;17.024;2023-02-11T08:26:30;19;18;11
70243;PMS7003;57634;51.136;17.024;2023-02-11T08:29:34;22;18;11
70243;PMS7003;57634;51.136;17.024;2023-02-11T08:32:35;24;20;14
70243;PMS7003;57634;51.136;17.024;2023-02-11T08:35:37;20;18;11
70243;PMS7003;57634;51.136;17.024;2023-02-11T08:38:40;22;16;10
70243;PMS7003;57634;51.136;17.024;2023-02-11T08:41:43;23;19;13
70243;PMS7003;57634;51.136;17.024;2023-02-11T08:44:46;18;17;10
70243;PMS7003;57634;51.136;17.024;2023-02-11T08:47:47;22;18;12
70243;PMS7003;57634;51.136;17.024;2023-02-11T08:50:48;20;18;13
70243;PMS7003;57634;51.136;17.024;2023-02-11T08:53:50;27;23;13
70243;PMS7003;57634;51.136;17.024;2023-02-11T08:56:51;23;20;13
70243;PMS7003;57634;51.136;17.024;2023-02-11T09:00:19;31;27;18
70243;PMS7003;57634;51.136;17.024;2023-02-11T09:03:21;24;19;11
70243;PMS7003;57634;51.136;17.024;2023-02-11T09:06:22;18;16;8
70243;PMS7003;57634;51.136;17.024;2023-02-11T09:09:24;21;17;12
70243;PMS7003;57634;51.136;17.024;2023-02-11T09:12:26;26;23;14
70243;PMS7003;57634;51.136;17.024;2023-02-11T09:15:27;23;19;13
70243;PMS7003;57634;51.136;17.024;2023-02-11T09:18:28;20;19;12
70243;PMS7003;57634;51.136;17.024;2023-02-11T09:21:29;22;21;13
70243;PMS7003;57634;51.136;17.024;2023-02-11T09:24:31;25;22;14
70243;PMS7003;57634;51.136;17.024;2023-02-11T09:27:32;21;19;12
70243;PMS7003;57634;51.136;17.024;2023-02-11T09:30:36;23;22;13
70243;PMS7003;57634;51.136;17.024;2023-02-11T09:33:39;25;23;14
70243;PMS7003;57634;51.136;17.024;2023-02-11T09:37:14;20;17;10
70243;PMS7003;57634;51.136;17.024;2023-02-11T09:40:16;22;19;12
70243;PMS7003;57634;51.136;17.024;2023-02-11T09:43:30;25;21;12
70243;PMS7003;57634;51.136;17.024;2023-02-11T09:46:36;23;19;12
70243;PMS7003;57634;51.136;17.024;2023-02-11T09:56:34;24;19;12
70243;PMS7003;57634;51.136;17.024;2023-02-11T09:59:36;21;18;11
70243;PMS7003;57634;51.136;17.024;2023-02-11T10:02:44;20;18;12
70243;PMS7003;57634;51.136;17.024;2023-02-11T10:06:03;23;19;11
70243;PMS7003;57634;51.136;17.024;2023-02-11T10:12:53;23;20;14
70243;PMS7003;57634;51.136;17.024;2023-02-11T10:16:08;23;21;13
70243;PMS7003;57634;51.136;17.024;2023-02-11T10:22:40;17;13;8
70243;PMS7003;57634;51.136;17.024;2023-02-11T10:26:12;23;18;13
70243;PMS7003;57634;51.136;17.024;2023-02-11T10:32:34;20;17;11
70243;PMS7003;57634;51.136;17.024;2023-02-11T10:35:42;24;19;11
70243;PMS7003;57634;51.136;17.024;2023-02-11T10:38:46;20;18;12
70243;PMS7003;57634;51.136;17.024;2023-02-11T10:41:51;16;14;7
70243;PMS7003;57634;51.136;17.024;2023-02-11T10:51:56;19;17;11
70243;PMS7003;57634;51.136;17.024;2023-02-11T10:55:15;22;19;13
70243;PMS7003;57634;51.136;17.024;2023-02-11T10:58:53;22;19;11
70243;PMS7003;57634;51.136;17.024;2023-02-11T11:02:04;23;20;13
70243;PMS7003;57634;51.136;17.024;2023-02-11T11:05:15;23;21;14
70243;PMS7003;57634;51.136;17.024;2023-02-11T11:08:18;22;19;11
70243;PMS7003;57634;51.136;17.024;2023-02-11T11:11:21;22;21;12
70243;PMS7003;57634;51.136;17.024;2023-02-11T11:14:23;22;21;12
70243;PMS7003;57634;51.136;17.024;2023-02-11T11:17:29;17;15;9
70243;PMS7003;57634;51.136;17.024;2023-02-11T11:20:57;23;18;11
70243;PMS7003;57634;51.136;17.024;2023-02-11T11:24:01;15;14;9
70243;PMS7003;57634;51.136;17.024;2023-02-11T11:27:03;27;22;14
70243;PMS7003;57634;51.136;17.024;2023-02-11T11:30:09;19;16;11
70243;PMS7003;57634;51.136;17.024;2023-02-11T11:33:20;21;19;13
70243;PMS7003;57634;51.136;17.024;2023-02-11T11:36:31;18;15;9
70243;PMS7003;57634;51.136;17.024;2023-02-11T11:39:40;22;20;11
70243;PMS7003;57634;51.136;17.024;2023-02-11T11:49:39;23;21;13
70243;PMS7003;57634;51.136;17.024;2023-02-11T11:52:46;30;26;16
70243;PMS7003;57634;51.136;17.024;2023-02-11T11:56:29;25;22;15
70243;PMS7003;57634;51.136;17.024;2023-02-11T11:59:33;24;22;15
70243;PMS7003;57634;51.136;17.024;2023-02-11T12:15:55;33;27;16
70243;PMS7003;57634;51.136;17.024;2023-02-11T12:19:08;30;25;14
70243;PMS7003;57634;51.136;17.024;2023-02-11T12:32:26;21;20;12
70243;PMS7003;57634;51.136;17.024;2023-02-11T12:52:19;24;20;12
70243;PMS7003;57634;51.136;17.024;2023-02-11T12:55:57;24;20;12
70243;PMS7003;57634;51.136;17.024;2023-02-11T12:59:08;20;17;11
70243;PMS7003;57634;51.136;17.024;2023-02-11T13:02:20;21;18;12
70243;PMS7003;57634;51.136;17.024;2023-02-11T13:05:28;26;23;13
70243;PMS7003;57634;51.136;17.024;2023-02-11T13:12:12;21;19;12
70243;PMS7003;57634;51.136;17.024;2023-02-11T13:15:26;22;21;13
70243;PMS7003;57634;51.136;17.024;2023-02-11T13:25:35;18;17;11
70243;PMS7003;57634;51.136;17.024;2023-02-11T13:28:56;21;17;10
70243;PMS7003;57634;51.136;17.024;2023-02-11T13:38:53;24;21;14
70243;PMS7003;57634;51.136;17.024;2023-02-11T13:42:02;24;20;12
70243;PMS7003;57634;51.136;17.024;2023-02-11T13:45:15;29;25;14
70243;PMS7003;57634;51.136;17.024;2023-02-11T13:51:36;27;23;16
70243;PMS7003;57634;51.136;17.024;2023-02-11T13:55:13;23;21;12
70243;PMS7003;57634;51.136;17.024;2023-02-11T14:09:33;22;20;13
70243;PMS7003;57634;51.136;17.024;2023-02-11T14:15:24;20;19;13
70243;PMS7003;57634;51.136;17.024;2023-02-11T14:28:26;20;18;12
70243;PMS7003;57634;51.136;17.024;2023-02-11T14:31:37;21;18;12
70243;PMS7003;57634;51.136;17.024;2023-02-11T14:41:39;18;17;11
70243;PMS7003;57634;51.136;17.024;2023-02-11T14:44:42;13;13;7
70243;PMS7003;57634;51.136;17.024;2023-02-11T14:47:49;18;14;9
70243;PMS7003;57634;51.136;17.024;2023-02-11T14:50:58;22;19;13
70243;PMS7003;57634;51.136;17.024;2023-02-11T14:57:43;15;13;8
70243;PMS7003;57634;51.136;17.024;2023-02-11T15:00:49;16;14;9
70243;PMS7003;57634;51.136;17.024;2023-02-11T15:03:56;13;13;9
70243;PMS7003;57634;51.136;17.024;2023-02-11T15:07:03;15;15;9
70243;PMS7003;57634;51.136;17.024;2023-02-11T15:10:14;19;16;11
70243;PMS7003;57634;51.136;17.024;2023-02-11T15:13:22;20;19;12
70243;PMS7003;57634;51.136;17.024;2023-02-11T15:16:26;16;14;9
70243;PMS7003;57634;51.136;17.024;2023-02-11T15:19:54;20;17;11
70243;PMS7003;57634;51.136;17.024;2023-02-11T15:23:04;16;16;10
70243;PMS7003;57634;51.136;17.024;2023-02-11T15:26:13;20;17;11
70243;PMS7003;57634;51.136;17.024;2023-02-11T15:29:22;23;21;11
70243;PMS7003;57634;51.136;17.024;2023-02-11T15:32:26;19;16;10
70243;PMS7003;57634;51.136;17.024;2023-02-11T15:35:30;15;12;7
70243;PMS7003;57634;51.136;17.024;2023-02-11T15:38:36;20;18;12
70243;PMS7003;57634;51.136;17.024;2023-02-11T15:51:42;16;14;10
70243;PMS7003;57634;51.136;17.024;2023-02-11T15:54:45;18;17;11
70243;PMS7003;57634;51.136;17.024;2023-02-11T15:57:51;18;16;11
70243;PMS7003;57634;51.136;17.024;2023-02-11T16:04:31;17;16;10
70243;PMS7003;57634;51.136;17.024;2023-02-11T16:13:58;20;19;12
70243;PMS7003;57634;51.136;17.024;2023-02-11T16:20:38;18;15;10
70243;PMS7003;57634;51.136;17.024;2023-02-11T16:23:40;18;16;9
70243;PMS7003;57634;51.136;17.024;2023-02-11T16:26:45;12;11;8
70243;PMS7003;57634;51.136;17.024;2023-02-11T16:29:49;14;12;7
70243;PMS7003;57634;51.136;17.024;2023-02-11T16:32:51;14;12;9
70243;PMS7003;57634;51.136;17.024;2023-02-11T16:35:54;13;10;7
70243;PMS7003;57634;51.136;17.024;2023-02-11T16:38:56;16;13;6
70243;PMS7003;57634;51.136;17.024;2023-02-11T16:41:57;14;13;9
70243;PMS7003;57634;51.136;17.024;2023-02-11T16:45:00;21;16;11
70243;PMS7003;57634;51.136;17.024;2023-02-11T16:48:02;21;19;13
70243;PMS7003;57634;51.136;17.024;2023-02-11T16:51:09;19;17;10
70243;PMS7003;57634;51.136;17.024;2023-02-11T16:54:37;19;14;9
70243;PMS7003;57634;51.136;17.024;2023-02-11T16:57:39;15;14;9
70243;PMS7003;57634;51.136;17.024;2023-02-11T17:00:40;18;17;10
70243;PMS7003;57634;51.136;17.024;2023-02-11T17:03:44;16;14;9
70243;PMS7003;57634;51.136;17.024;2023-02-11T17:06:45;16;14;9
70243;PMS7003;57634;51.136;17.024;2023-02-11T17:09:47;12;12;8
70243;PMS7003;57634;51.136;17.024;2023-02-11T17:12:48;15;12;8
70243;PMS7003;57634;51.136;17.024;2023-02-11T17:15:52;16;13;8
70243;PMS7003;57634;51.136;17.024;2023-02-11T17:18:54;10;9;5
70243;PMS7003;57634;51.136;17.024;2023-02-11T17:21:55;14;12;8
70243;PMS7003;57634;51.136;17.024;2023-02-11T17:24:56;14;11;7
70243;PMS7003;57634;51.136;17.024;2023-02-11T17:27:58;13;12;8
70243;PMS7003;57634;51.136;17.024;2023-02-11T17:30:59;10;9;6
70243;PMS7003;57634;51.136;17.024;2023-02-11T17:34:30;11;9;6
70243;PMS7003;57634;51.136;17.024;2023-02-11T17:37:32;14;12;8
70243;PMS7003;57634;51.136;17.024;2023-02-11T17:40:33;15;12;8
70243;PMS7003;57634;51.136;17.024;2023-02-11T17:43:34;13;10;8
70243;PMS7003;57634;51.136;17.024;2023-02-11T17:46:36;15;13;7
70243;PMS7003;57634;51.136;17.024;2023-02-11T17:49:37;13;12;8
70243;PMS7003;57634;51.136;17.024;2023-02-11T17:52:40;15;14;10
70243;PMS7003;57634;51.136;17.024;2023-02-11T17:55:41;13;11;8
70243;PMS7003;57634;51.136;17.024;2023-02-11T17:58:42;14;11;7
70243;PMS7003;57634;51.136;17.024;2023-02-11T18:01:43;19;16;9
70243;PMS7003;57634;51.136;17.024;2023-02-11T18:04:45;13;12;8
70243;PMS7003;57634;51.136;17.024;2023-02-11T18:07:47;17;15;9
70243;PMS7003;57634;51.136;17.024;2023-02-11T18:10:48;12;11;8
70243;PMS7003;57634;51.136;17.024;2023-02-11T18:13:49;11;10;7
70243;PMS7003;57634;51.136;17.024;2023-02-11T18:17:20;13;11;8
70243;PMS7003;57634;51.136;17.024;2023-02-11T18:20:22;13;12;8
70243;PMS7003;57634;51.136;17.024;2023-02-11T18:23:24;18;15;9
70243;PMS7003;57634;51.136;17.024;2023-02-11T18:26:26;14;14;10
70243;PMS7003;57634;51.136;17.024;2023-02-11T18:29:28;15;13;10
70243;PMS7003;57634;51.136;17.024;2023-02-11T18:32:29;16;15;10
70243;PMS7003;57634;51.136;17.024;2023-02-11T18:35:31;18;16;9
70243;PMS7003;57634;51.136;17.024;2023-02-11T18:38:32;16;15;9
70243;PMS7003;57634;51.136;17.024;2023-02-11T18:41:34;13;11;8
70243;PMS7003;57634;51.136;17.024;2023-02-11T18:44:35;17;15;9
70243;PMS7003;57634;51.136;17.024;2023-02-11T18:47:37;14;13;9
70243;PMS7003;57634;51.136;17.024;2023-02-11T18:50:39;14;13;8
70243;PMS7003;57634;51.136;17.024;2023-02-11T18:53:44;15;13;9
70243;PMS7003;57634;51.136;17.024;2023-02-11T18:57:12;17;14;8
70243;PMS7003;57634;51.136;17.024;2023-02-11T19:00:14;18;16;10
70243;PMS7003;57634;51.136;17.024;2023-02-11T19:03:16;14;12;7
70243;PMS7003;57634;51.136;17.024;2023-02-11T19:06:20;16;11;8
70243;PMS7003;57634;51.136;17.024;2023-02-11T19:09:26;19;16;11
70243;PMS7003;57634;51.136;17.024;2023-02-11T19:12:27;19;16;11
70243;PMS7003;57634;51.136;17.024;2023-02-11T19:15:28;14;12;9
70243;PMS7003;57634;51.136;17.024;2023-02-11T19:18:29;19;16;10
70243;PMS7003;57634;51.136;17.024;2023-02-11T19:21:31;17;15;11
70243;PMS7003;57634;51.136;17.024;2023-02-11T19:24:33;15;15;11
70243;PMS7003;57634;51.136;17.024;2023-02-11T19:27:36;16;15;11
70243;PMS7003;57634;51.136;17.024;2023-02-11T19:30:41;13;13;9
70243;PMS7003;57634;51.136;17.024;2023-02-11T19:34:09;12;10;6
70243;PMS7003;57634;51.136;17.024;2023-02-11T19:37:13;15;14;9
70243;PMS7003;57634;51.136;17.024;2023-02-11T19:40:14;17;14;9
70243;PMS7003;57634;51.136;17.024;2023-02-11T19:43:16;14;12;9
70243;PMS7003;57634;51.136;17.024;2023-02-11T19:46:18;14;13;9
70243;PMS7003;57634;51.136;17.024;2023-02-11T19:49:21;13;10;7
70243;PMS7003;57634;51.136;17.024;2023-02-11T19:52:26;14;12;8
70243;PMS7003;57634;51.136;17.024;2023-02-11T19:55:27;13;12;8
70243;PMS7003;57634;51.136;17.024;2023-02-11T19:58:28;13;13;8
70243;PMS7003;57634;51.136;17.024;2023-02-11T20:01:29;14;12;6
70243;PMS7003;57634;51.136;17.024;2023-02-11T20:04:31;18;14;9
70243;PMS7003;57634;51.136;17.024;2023-02-11T20:07:32;17;15;10
70243;PMS7003;57634;51.136;17.024;2023-02-11T20:10:34;17;14;10
70243;PMS7003;57634;51.136;17.024;2023-02-11T20:14:01;13;10;7
70243;PMS7003;57634;51.136;17.024;2023-02-11T20:17:03;12;11;8
70243;PMS7003;57634;51.136;17.024;2023-02-11T20:20:05;13;12;8
70243;PMS7003;57634;51.136;17.024;2023-02-11T20:23:07;15;13;9
70243;PMS7003;57634;51.136;17.024;2023-02-11T20:26:11;12;12;9
70243;PMS7003;57634;51.136;17.024;2023-02-11T20:29:15;14;12;8
70243;PMS7003;57634;51.136;17.024;2023-02-11T20:32:17;12;10;6
70243;PMS7003;57634;51.136;17.024;2023-02-11T20:35:18;10;10;8
70243;PMS7003;57634;51.136;17.024;2023-02-11T20:38:20;11;10;7
70243;PMS7003;57634;51.136;17.024;2023-02-11T20:41:22;10;9;6
70243;PMS7003;57634;51.136;17.024;2023-02-11T20:44:27;10;8;5
70243;PMS7003;57634;51.136;17.024;2023-02-11T20:47:29;12;11;7
70243;PMS7003;57634;51.136;17.024;2023-02-11T20:54:05;12;11;8
70243;PMS7003;57634;51.136;17.024;2023-02-11T20:57:07;17;14;9
70243;PMS7003;57634;51.136;17.024;2023-02-11T21:00:08;12;11;7
70243;PMS7003;57634;51.136;17.024;2023-02-11T21:03:12;9;8;6
70243;PMS7003;57634;51.136;17.024;2023-02-11T21:06:13;12;10;6
70243;PMS7003;57634;51.136;17.024;2023-02-11T21:09:16;9;8;7
70243;PMS7003;57634;51.136;17.024;2023-02-11T21:12:19;8;8;6
70243;PMS7003;57634;51.136;17.024;2023-02-11T21:15:20;19;15;8
70243;PMS7003;57634;51.136;17.024;2023-02-11T21:18:24;11;10;5
70243;PMS7003;57634;51.136;17.024;2023-02-11T21:21:26;13;12;8
70243;PMS7003;57634;51.136;17.024;2023-02-11T21:24:54;9;9;7
70243;PMS7003;57634;51.136;17.024;2023-02-11T21:27:55;12;10;6
70243;PMS7003;57634;51.136;17.024;2023-02-11T21:30:57;9;8;6
70243;PMS7003;57634;51.136;17.024;2023-02-11T21:33:58;13;11;6
70243;PMS7003;57634;51.136;17.024;2023-02-11T21:37:00;11;9;6
70243;PMS7003;57634;51.136;17.024;2023-02-11T21:40:03;11;9;5
70243;PMS7003;57634;51.136;17.024;2023-02-11T21:43:05;13;10;7
70243;PMS7003;57634;51.136;17.024;2023-02-11T21:46:07;12;10;6
70243;PMS7003;57634;51.136;17.024;2023-02-11T21:49:10;12;11;7
70243;PMS7003;57634;51.136;17.024;2023-02-11T21:52:11;12;11;6
70243;PMS7003;57634;51.136;17.024;2023-02-11T21:55:13;10;9;7
70243;PMS7003;57634;51.136;17.024;2023-02-11T21:58:14;10;10;7
70243;PMS7003;57634;51.136;17.024;2023-02-11T22:01:17;15;9;6
70243;PMS7003;57634;51.136;17.024;2023-02-11T22:04:46;14;12;8
70243;PMS7003;57634;51.136;17.024;2023-02-11T22:07:47;17;14;9
70243;PMS7003;57634;51.136;17.024;2023-02-11T22:10:48;21;20;12
70243;PMS7003;57634;51.136;17.024;2023-02-11T22:13:53;16;15;9
70243;PMS7003;57634;51.136;17.024;2023-02-11T22:16:57;11;9;7
70243;PMS7003;57634;51.136;17.024;2023-02-11T22:19:58;8;8;5
70243;PMS7003;57634;51.136;17.024;2023-02-11T22:22:59;11;9;4
70243;PMS7003;57634;51.136;17.024;2023-02-11T22:26:08;8;8;5
70243;PMS7003;57634;51.136;17.024;2023-02-11T22:29:11;9;7;4
70243;PMS7003;57634;51.136;17.024;2023-02-11T22:32:12;10;8;5
70243;PMS7003;57634;51.136;17.024;2023-02-11T22:35:17;10;9;6
70243;PMS7003;57634;51.136;17.024;2023-02-11T22:38:44;10;8;4
70243;PMS7003;57634;51.136;17.024;2023-02-11T22:41:46;12;8;5